createdAt,value
2018-11-06T06:36:07.245Z,124.50
2018-11-06T06:41:14.043Z,156.47
2018-11-06T06:46:19.986Z,116.77
2018-11-06T06:51:34.576Z,115.23
2018-11-06T06:56:42.519Z,132.83
2018-11-06T07:01:49.772Z,120.37
2018-11-06T07:07:01.736Z,119.80
2018-11-06T07:12:12.508Z,117.67
2018-11-06T07:22:40.136Z,103.83
2018-11-06T07:27:56.536Z,109.13
2018-11-06T07:38:30.405Z,149.93
2018-11-06T07:43:40.534Z,111.23
2018-11-06T07:48:59.175Z,121.97
2018-11-06T07:54:15.665Z,89.60
2018-11-06T07:59:28.811Z,80.50
2018-11-06T08:10:04.419Z,71.53
2018-11-06T08:15:18.917Z,79.27
2018-11-06T08:20:29.924Z,76.67
2018-11-06T08:25:42.035Z,86.37
2018-11-06T08:31:01.123Z,97.83
2018-11-06T08:37:57.015Z,124.93
2018-11-06T08:55:22.376Z,95.40
2018-11-06T09:00:34.991Z,74.47
2018-11-06T09:22:59.760Z,74.63
2018-11-06T09:28:03.240Z,91.67
2018-11-06T09:33:06.657Z,95.17
2018-11-06T09:38:10.561Z,79.67
2018-11-06T09:43:14.318Z,73.80
2018-11-06T09:48:18.254Z,94.47
2018-11-06T09:53:21.965Z,77.43
2018-11-06T09:58:26.663Z,75.30
2018-11-06T10:03:30.984Z,104.40
2018-11-06T10:08:34.913Z,99.27
2018-11-06T10:13:41.582Z,96.10
2018-11-06T10:18:45.821Z,94.17
2018-11-06T10:23:54.746Z,85.67
2018-11-06T10:28:59.348Z,95.40
2018-11-06T10:34:03.224Z,122.50
2018-11-06T10:39:09.806Z,99.30
2018-11-06T10:44:13.355Z,86.83
2018-11-06T10:49:22.302Z,81.23
2018-11-06T10:54:26.294Z,89.20
2018-11-06T10:59:30.024Z,114.07
2018-11-06T11:04:35.305Z,114.33
2018-11-06T11:09:39.725Z,121.33
2018-11-06T11:14:43.616Z,122.73
2018-11-06T11:19:47.035Z,115.77
2018-11-06T11:24:50.783Z,97.83
2018-11-06T11:29:54.289Z,114.70
2018-11-06T11:34:58.045Z,114.63
2018-11-06T11:40:01.682Z,101.47
2018-11-06T11:45:09.768Z,119.93
2018-11-06T11:50:15.089Z,93.77
2018-11-06T11:55:19.103Z,91.40
2018-11-06T12:00:26.789Z,119.63
2018-11-06T12:05:30.188Z,89.57
2018-11-06T12:10:34.540Z,120.47
2018-11-06T12:15:38.107Z,102.13
2018-11-06T12:20:49.717Z,111.20
2018-11-06T12:25:58.863Z,92.70
2018-11-06T12:31:08.395Z,93.23
2018-11-06T12:36:12.603Z,91.57
2018-11-06T12:41:17.263Z,86.27
2018-11-06T12:46:28.022Z,95.53
2018-11-06T12:51:31.798Z,93.57
2018-11-06T12:56:36.048Z,84.60
2018-11-06T13:01:39.784Z,86.67
2018-11-06T13:06:43.312Z,93.90
2018-11-06T13:11:46.884Z,89.00
2018-11-06T13:16:50.525Z,78.40
2018-11-06T13:21:54.166Z,66.30
2018-11-06T13:26:57.996Z,70.87
2018-11-06T13:32:02.201Z,63.07
2018-11-06T13:37:05.758Z,77.37
2018-11-06T13:42:09.230Z,66.30
2018-11-06T13:47:13.781Z,55.80
2018-11-06T13:52:17.412Z,69.13
2018-11-06T13:57:20.915Z,72.17
2018-11-06T14:02:25.024Z,74.73
2018-11-06T14:07:52.718Z,66.83
2018-11-06T14:12:57.814Z,69.20
2018-11-06T14:18:01.790Z,72.40
2018-11-06T14:23:05.715Z,64.83
2018-11-06T14:28:09.503Z,64.47
2018-11-06T14:33:13.646Z,88.40
2018-11-06T14:38:18.343Z,73.60
2018-11-06T14:43:22.666Z,68.63
2018-11-06T14:48:26.673Z,65.90
2018-11-06T14:53:30.908Z,75.90
2018-11-06T14:58:34.520Z,81.13
2018-11-06T15:03:38.506Z,81.53
2018-11-06T15:08:53.871Z,81.77
2018-11-06T15:14:16.159Z,99.93
2018-11-06T15:19:34.698Z,71.80
2018-11-06T15:24:39.973Z,76.57
2018-11-06T15:29:43.731Z,69.43
2018-11-06T15:34:47.556Z,90.57
2018-11-06T15:39:51.801Z,81.30
2018-11-06T15:44:56.229Z,71.87
2018-11-06T15:50:05.395Z,82.67
2018-11-06T15:55:09.951Z,67.93
2018-11-06T16:00:15.545Z,99.67
2018-11-06T16:05:19.330Z,87.63
2018-11-06T16:10:23.973Z,92.33
2018-11-06T16:15:37.662Z,66.50
2018-11-06T16:20:42.778Z,60.87
2018-11-06T16:25:52.156Z,61.40
2018-11-06T16:30:56.164Z,54.33
2018-11-06T16:36:00.457Z,58.90
2018-11-06T16:41:04.864Z,58.23
2018-11-06T16:46:08.517Z,53.00
2018-11-06T16:51:12.577Z,55.83
2018-11-06T16:56:17.171Z,45.10
2018-11-06T17:01:21.153Z,58.23
2018-11-06T17:06:30.491Z,54.07
2018-11-06T17:11:34.011Z,56.30
2018-11-06T17:16:37.968Z,49.53
2018-11-06T17:21:42.160Z,51.63
2018-11-06T17:26:53.623Z,48.80
2018-11-06T17:31:58.661Z,65.90
2018-11-06T17:37:04.824Z,85.27
2018-11-06T17:42:08.757Z,82.20
2018-11-06T17:47:12.512Z,54.67
2018-11-06T17:52:16.417Z,47.37
2018-11-06T17:57:20.557Z,56.33
2018-11-06T18:02:25.210Z,48.23
2018-11-06T18:07:28.957Z,38.13
2018-11-06T18:12:32.483Z,46.87
2018-11-06T18:17:36.987Z,37.73
2018-11-06T18:22:40.950Z,38.70
2018-11-06T18:27:44.969Z,63.27
2018-11-06T18:32:48.682Z,51.13
2018-11-06T18:37:53.538Z,46.43
2018-11-06T18:42:57.490Z,42.17
2018-11-06T18:48:00.899Z,45.90
2018-11-06T18:53:05.553Z,44.10
2018-11-06T18:58:09.864Z,95.17
2018-11-06T19:03:13.530Z,47.70
2018-11-06T19:08:17.333Z,44.23
2018-11-06T19:13:21.375Z,38.23
2018-11-06T19:18:25.618Z,44.80
2018-11-06T19:23:31.050Z,44.37
2018-11-06T19:28:35.005Z,37.27
2018-11-06T19:33:39.491Z,44.27
2018-11-06T19:38:44.240Z,69.63
2018-11-06T19:48:58.003Z,42.37
2018-11-06T19:54:02.677Z,54.77
2018-11-06T19:59:07.678Z,48.60
2018-11-06T20:04:12.631Z,45.80
2018-11-06T20:09:25.084Z,35.17
2018-11-06T20:14:30.414Z,39.17
2018-11-06T20:19:34.788Z,45.80
2018-11-06T20:24:39.497Z,40.83
2018-11-06T20:29:43.816Z,45.13
2018-11-06T20:34:48.484Z,43.40
2018-11-06T20:45:36.414Z,40.33
2018-11-06T20:50:41.844Z,40.33
2018-11-06T20:55:46.207Z,41.83
2018-11-06T21:00:50.844Z,38.87
2018-11-06T21:05:55.389Z,39.93
2018-11-06T21:11:00.174Z,34.13
2018-11-06T21:16:04.343Z,63.97
2018-11-06T21:21:08.378Z,39.87
2018-11-06T21:26:19.898Z,44.40
2018-11-06T21:31:25.338Z,38.50
2018-11-06T21:36:30.141Z,35.63
2018-11-06T21:41:35.915Z,40.53
2018-11-06T21:46:39.368Z,45.77
2018-11-06T21:51:43.442Z,36.40
2018-11-06T21:56:47.171Z,79.60
2018-11-06T22:01:51.169Z,45.40
2018-11-06T22:06:56.658Z,32.93
2018-11-06T22:12:00.331Z,43.50
2018-11-06T22:17:04.135Z,99.73
2018-11-06T22:22:07.609Z,56.10
2018-11-06T22:27:11.051Z,49.53
2018-11-06T22:32:17.195Z,50.63
2018-11-06T22:37:21.296Z,36.37
2018-11-06T22:42:25.283Z,28.70
2018-11-06T22:47:28.880Z,45.17
2018-11-06T22:52:32.695Z,34.00
2018-11-06T22:57:36.116Z,42.47
2018-11-06T23:02:40.207Z,32.03
2018-11-06T23:07:49.431Z,50.67
2018-11-06T23:12:53.106Z,26.43
2018-11-06T23:17:56.994Z,27.13
2018-11-06T23:23:00.754Z,135.03
2018-11-06T23:28:04.532Z,28.50
2018-11-06T23:33:08.197Z,51.63
2018-11-06T23:38:11.623Z,73.17
2018-11-06T23:43:16.112Z,44.00
2018-11-06T23:48:19.934Z,40.40
2018-11-06T23:53:23.599Z,51.60
2018-11-06T23:58:27.337Z,36.13
